createdAt,value
2019-01-12T00:01:03.427Z,1012.59
2019-01-12T00:02:08.945Z,1012.56
2019-01-12T00:03:15.458Z,1012.55
2019-01-12T00:04:19.965Z,1012.56
2019-01-12T00:05:25.473Z,1012.61
2019-01-12T00:06:30.982Z,1012.61
2019-01-12T00:07:36.490Z,1012.54
2019-01-12T00:08:41.988Z,1012.56
2019-01-12T00:09:48.507Z,1012.52
2019-01-12T00:10:53.003Z,1012.59
2019-01-12T00:11:58.508Z,1012.54
2019-01-12T00:13:04.019Z,1012.53
2019-01-12T00:14:09.528Z,1012.56
2019-01-12T00:15:15.042Z,1012.54
2019-01-12T00:16:21.596Z,1012.54
2019-01-12T00:17:26.048Z,1012.52
2019-01-12T00:18:31.570Z,1012.49
2019-01-12T00:19:37.080Z,1012.49
2019-01-12T00:20:42.573Z,1012.53
2019-01-12T00:21:48.087Z,1012.54
2019-01-12T00:22:54.601Z,1012.52
2019-01-12T00:23:59.100Z,1012.54
2019-01-12T00:25:04.613Z,1012.51
2019-01-12T00:26:10.118Z,1012.53
2019-01-12T00:27:15.624Z,1012.52
2019-01-12T00:28:21.131Z,1012.51
2019-01-12T00:29:27.651Z,1012.51
2019-01-12T00:30:32.155Z,1012.52
2019-01-12T00:31:37.659Z,1012.49
2019-01-12T00:32:43.163Z,1012.50
2019-01-12T00:33:48.673Z,1012.50
2019-01-12T00:34:54.236Z,1012.47
2019-01-12T00:36:00.696Z,1012.48
2019-01-12T00:37:05.193Z,1012.52
2019-01-12T00:38:10.713Z,1012.49
2019-01-12T00:39:16.217Z,1012.51
2019-01-12T00:40:21.719Z,1012.49
2019-01-12T00:41:27.235Z,1012.47
2019-01-12T00:42:33.746Z,1012.45
2019-01-12T00:43:38.241Z,1012.46
2019-01-12T00:44:43.751Z,1012.48
2019-01-12T00:45:49.255Z,1012.40
2019-01-12T00:46:54.765Z,1012.45
2019-01-12T00:48:00.274Z,1012.43
2019-01-12T00:49:06.799Z,1012.44
2019-01-12T00:50:11.285Z,1012.43
2019-01-12T00:51:16.798Z,1012.44
2019-01-12T00:52:22.302Z,1012.41
2019-01-12T00:53:27.817Z,1012.45
2019-01-12T00:54:38.472Z,1012.43
2019-01-12T00:55:39.834Z,1012.49
2019-01-12T00:56:44.336Z,1012.49
2019-01-12T00:57:49.845Z,1012.54
2019-01-12T00:58:55.350Z,1012.45
2019-01-12T01:00:00.865Z,1012.49
2019-01-12T01:01:06.373Z,1012.45
2019-01-12T01:02:12.885Z,1012.49
2019-01-12T01:03:17.389Z,1012.46
2019-01-12T01:04:22.890Z,1012.45
2019-01-12T01:05:28.399Z,1012.43
2019-01-12T01:06:33.913Z,1012.42
2019-01-12T01:07:39.417Z,1012.48
2019-01-12T01:08:45.932Z,1012.38
2019-01-12T01:09:50.441Z,1012.40
2019-01-12T01:10:55.941Z,1012.41
2019-01-12T01:12:01.444Z,1012.39
2019-01-12T01:13:06.961Z,1012.40
2019-01-12T01:14:12.461Z,1012.40
2019-01-12T01:15:18.984Z,1012.40
2019-01-12T01:16:23.479Z,1012.39
2019-01-12T01:17:28.983Z,1012.37
2019-01-12T01:18:34.497Z,1012.42
2019-01-12T01:19:40.000Z,1012.35
2019-01-12T01:20:45.507Z,1012.36
2019-01-12T01:21:52.032Z,1012.37
2019-01-12T01:22:56.530Z,1012.38
2019-01-12T01:24:02.029Z,1012.36
2019-01-12T01:25:07.536Z,1012.40
2019-01-12T01:26:13.045Z,1012.41
2019-01-12T01:27:18.556Z,1012.41
2019-01-12T01:28:25.121Z,1012.45
2019-01-12T01:29:29.569Z,1012.39
2019-01-12T01:30:35.074Z,1012.37
2019-01-12T01:31:40.583Z,1012.40
2019-01-12T01:32:46.093Z,1012.43
2019-01-12T01:33:51.598Z,1012.44
2019-01-12T01:34:58.119Z,1012.46
2019-01-12T01:36:02.620Z,1012.43
2019-01-12T01:37:08.129Z,1012.41
2019-01-12T01:38:13.639Z,1012.43
2019-01-12T01:39:19.139Z,1012.47
2019-01-12T01:40:24.647Z,1012.41
2019-01-12T01:41:31.166Z,1012.44
2019-01-12T01:42:35.666Z,1012.44
2019-01-12T01:43:41.170Z,1012.48
2019-01-12T01:44:46.680Z,1012.46
2019-01-12T01:45:52.198Z,1012.48
2019-01-12T01:46:57.704Z,1012.50
2019-01-12T01:48:04.213Z,1012.49
2019-01-12T01:49:08.715Z,1012.50
2019-01-12T01:50:14.225Z,1012.52
2019-01-12T01:51:19.726Z,1012.50
2019-01-12T01:52:25.241Z,1012.50
2019-01-12T01:53:30.765Z,1012.49
2019-01-12T01:54:37.260Z,1012.53
2019-01-12T01:55:41.759Z,1012.52
2019-01-12T01:56:47.269Z,1012.54
2019-01-12T01:57:52.777Z,1012.46
2019-01-12T01:58:58.283Z,1012.51
2019-01-12T02:00:03.792Z,1012.46
2019-01-12T02:01:10.306Z,1012.43
2019-01-12T02:02:14.806Z,1012.41
2019-01-12T02:03:20.321Z,1012.35
2019-01-12T02:04:25.821Z,1012.47
2019-01-12T02:05:31.331Z,1012.44
2019-01-12T02:06:36.845Z,1012.40
2019-01-12T02:07:43.358Z,1012.39
2019-01-12T02:08:47.851Z,1012.42
2019-01-12T02:09:53.370Z,1012.37
2019-01-12T02:10:58.869Z,1012.37
2019-01-12T02:12:04.379Z,1012.30
2019-01-12T02:13:09.884Z,1012.28
2019-01-12T02:14:16.411Z,1012.32
2019-01-12T02:15:20.902Z,1012.28
2019-01-12T02:16:26.426Z,1012.28
2019-01-12T02:17:31.916Z,1012.27
2019-01-12T02:18:37.428Z,1012.29
2019-01-12T02:19:42.938Z,1012.26
2019-01-12T02:20:49.450Z,1012.22
2019-01-12T02:21:53.955Z,1012.26
2019-01-12T02:22:59.456Z,1012.27
2019-01-12T02:24:04.976Z,1012.25
2019-01-12T02:25:10.473Z,1012.19
2019-01-12T02:26:15.988Z,1012.23
2019-01-12T02:27:22.505Z,1012.24
2019-01-12T02:28:26.999Z,1012.22
2019-01-12T02:29:32.513Z,1012.21
2019-01-12T02:30:38.015Z,1012.21
2019-01-12T02:31:43.524Z,1012.17
2019-01-12T02:32:49.036Z,1012.17
2019-01-12T02:33:55.548Z,1012.24
2019-01-12T02:35:00.049Z,1012.21
2019-01-12T02:36:05.554Z,1012.17
2019-01-12T02:37:11.062Z,1012.17
2019-01-12T02:38:16.571Z,1012.17
2019-01-12T02:39:22.081Z,1012.19
2019-01-12T02:40:28.598Z,1012.12
2019-01-12T02:41:33.095Z,1012.14
2019-01-12T02:42:38.605Z,1012.15
2019-01-12T02:43:44.115Z,1012.10
2019-01-12T02:44:49.617Z,1012.07
2019-01-12T02:45:55.129Z,1012.13
2019-01-12T02:47:01.648Z,1012.07
2019-01-12T02:48:06.147Z,1012.09
2019-01-12T02:49:11.653Z,1012.03
2019-01-12T02:50:17.157Z,1012.00
2019-01-12T02:51:22.668Z,1012.00
2019-01-12T02:52:28.178Z,1012.01
2019-01-12T02:53:34.696Z,1011.97
2019-01-12T02:54:39.187Z,1011.98
2019-01-12T02:55:44.699Z,1011.93
2019-01-12T02:56:50.215Z,1011.94
2019-01-12T02:57:55.714Z,1011.94
2019-01-12T02:59:01.237Z,1011.92
2019-01-12T03:00:07.743Z,1011.95
2019-01-12T03:01:12.242Z,1011.90
2019-01-12T03:02:17.746Z,1011.88
2019-01-12T03:03:23.252Z,1011.87
2019-01-12T03:04:28.760Z,1011.85
2019-01-12T03:05:34.268Z,1011.85
2019-01-12T03:06:40.792Z,1011.82
2019-01-12T03:07:45.296Z,1011.78
2019-01-12T03:08:50.795Z,1011.83
2019-01-12T03:09:56.301Z,1011.80
2019-01-12T03:11:01.821Z,1011.83
2019-01-12T03:12:07.332Z,1011.78
2019-01-12T03:13:13.835Z,1011.77
2019-01-12T03:14:18.336Z,1011.79
2019-01-12T03:15:23.848Z,1011.81
2019-01-12T03:16:29.355Z,1011.78
2019-01-12T03:17:34.860Z,1011.79
2019-01-12T03:18:40.376Z,1011.76
2019-01-12T03:19:46.890Z,1011.76
2019-01-12T03:20:51.385Z,1011.77
2019-01-12T03:21:56.899Z,1011.79
2019-01-12T03:23:02.402Z,1011.79
2019-01-12T03:24:07.916Z,1011.73
2019-01-12T03:25:18.375Z,1011.74
2019-01-12T03:26:19.939Z,1011.70
2019-01-12T03:27:24.434Z,1011.69
2019-01-12T03:28:29.942Z,1011.68
2019-01-12T03:29:35.453Z,1011.64
2019-01-12T03:30:40.955Z,1011.69
2019-01-12T03:31:46.465Z,1011.63
2019-01-12T03:32:52.986Z,1011.62
2019-01-12T03:33:57.482Z,1011.58
2019-01-12T03:35:02.989Z,1011.58
2019-01-12T03:36:08.496Z,1011.59
2019-01-12T03:37:14.003Z,1011.58
2019-01-12T03:38:19.513Z,1011.60
2019-01-12T03:39:26.030Z,1011.53
2019-01-12T03:40:30.537Z,1011.55
2019-01-12T03:41:36.050Z,1011.56
2019-01-12T03:42:41.551Z,1011.57
2019-01-12T03:43:47.054Z,1011.57
2019-01-12T03:44:52.568Z,1011.56
2019-01-12T03:45:59.078Z,1011.57
2019-01-12T03:47:03.577Z,1011.52
2019-01-12T03:48:09.088Z,1011.53
2019-01-12T03:49:14.600Z,1011.50
2019-01-12T03:50:20.107Z,1011.52
2019-01-12T03:51:25.615Z,1011.50
2019-01-12T03:52:32.128Z,1011.48
2019-01-12T03:53:36.629Z,1011.47
2019-01-12T03:54:42.136Z,1011.44
2019-01-12T03:55:47.642Z,1011.42
2019-01-12T03:56:53.154Z,1011.39
2019-01-12T03:57:58.664Z,1011.39
2019-01-12T03:59:05.181Z,1011.37
2019-01-12T04:00:09.683Z,1011.41
2019-01-12T04:01:15.182Z,1011.41
2019-01-12T04:02:20.694Z,1011.38
2019-01-12T04:03:26.196Z,1011.40
2019-01-12T04:04:31.712Z,1011.40
2019-01-12T04:05:38.234Z,1011.36
2019-01-12T04:06:42.727Z,1011.37
2019-01-12T04:07:48.236Z,1011.31
2019-01-12T04:08:53.739Z,1011.32
2019-01-12T04:09:59.253Z,1011.28
2019-01-12T04:11:04.756Z,1011.30
2019-01-12T04:12:11.276Z,1011.28
2019-01-12T04:13:15.772Z,1011.26
2019-01-12T04:14:21.279Z,1011.26
2019-01-12T04:15:26.797Z,1011.25
2019-01-12T04:16:32.297Z,1011.25
2019-01-12T04:17:37.806Z,1011.24
2019-01-12T04:18:44.325Z,1011.21
2019-01-12T04:19:48.819Z,1011.26
2019-01-12T04:20:54.332Z,1011.23
2019-01-12T04:21:59.839Z,1011.23
2019-01-12T04:23:05.347Z,1011.21
2019-01-12T04:24:10.857Z,1011.20
2019-01-12T04:25:17.374Z,1011.20
2019-01-12T04:26:21.868Z,1011.20
2019-01-12T04:27:27.379Z,1011.21
2019-01-12T04:28:32.897Z,1011.18
2019-01-12T04:29:38.392Z,1011.16
2019-01-12T04:30:43.907Z,1011.18
2019-01-12T04:31:50.421Z,1011.17
2019-01-12T04:32:54.918Z,1011.19
2019-01-12T04:34:00.423Z,1011.13
2019-01-12T04:35:05.943Z,1011.12
2019-01-12T04:36:11.442Z,1011.12
2019-01-12T04:37:16.954Z,1011.14
2019-01-12T04:38:23.470Z,1011.11
2019-01-12T04:39:27.976Z,1011.11
2019-01-12T04:40:33.475Z,1011.11
2019-01-12T04:41:38.984Z,1011.08
2019-01-12T04:42:44.491Z,1011.14
2019-01-12T04:43:49.995Z,1011.10
2019-01-12T04:44:56.517Z,1011.17
2019-01-12T04:46:01.017Z,1011.13
2019-01-12T04:47:06.520Z,1011.20
2019-01-12T04:48:12.031Z,1011.17
2019-01-12T04:49:17.537Z,1011.20
2019-01-12T04:50:23.046Z,1011.16
2019-01-12T04:51:29.604Z,1011.14
2019-01-12T04:52:34.065Z,1011.17
2019-01-12T04:53:39.568Z,1011.16
2019-01-12T04:54:45.078Z,1011.19
2019-01-12T04:55:50.595Z,1011.19
2019-01-12T04:56:56.093Z,1011.21
2019-01-12T04:58:02.611Z,1011.21
2019-01-12T04:59:07.113Z,1011.21
2019-01-12T05:00:12.619Z,1011.19
2019-01-12T05:01:18.127Z,1011.20
2019-01-12T05:02:23.637Z,1011.20
2019-01-12T05:03:29.137Z,1011.20
2019-01-12T05:04:35.662Z,1011.23
2019-01-12T05:05:40.159Z,1011.18
2019-01-12T05:06:45.664Z,1011.18
2019-01-12T05:07:51.175Z,1011.17
2019-01-12T05:08:56.682Z,1011.16
2019-01-12T05:10:02.191Z,1011.20
2019-01-12T05:11:08.709Z,1011.15
2019-01-12T05:12:13.205Z,1011.24
2019-01-12T05:13:18.714Z,1011.24
2019-01-12T05:14:24.222Z,1011.27
2019-01-12T05:15:29.726Z,1011.26
2019-01-12T05:16:35.237Z,1011.26
2019-01-12T05:17:41.750Z,1011.25
2019-01-12T05:18:46.255Z,1011.23
2019-01-12T05:19:51.762Z,1011.25
2019-01-12T05:20:57.268Z,1011.25
2019-01-12T05:22:02.776Z,1011.25
2019-01-12T05:23:08.287Z,1011.20
2019-01-12T05:24:14.806Z,1011.24
2019-01-12T05:25:19.299Z,1011.18
2019-01-12T05:26:24.808Z,1011.20
2019-01-12T05:27:30.315Z,1011.20
2019-01-12T05:28:35.848Z,1011.21
2019-01-12T05:29:41.330Z,1011.25
2019-01-12T05:30:47.849Z,1011.27
2019-01-12T05:31:52.356Z,1011.24
2019-01-12T05:32:57.856Z,1011.19
2019-01-12T05:34:03.376Z,1011.20
2019-01-12T05:35:08.871Z,1011.20
2019-01-12T05:36:14.380Z,1011.19
2019-01-12T05:37:21.398Z,1011.16
2019-01-12T05:38:25.396Z,1011.15
2019-01-12T05:39:30.901Z,1011.18
2019-01-12T05:40:36.410Z,1011.19
2019-01-12T05:41:41.918Z,1011.19
2019-01-12T05:42:47.427Z,1011.21
2019-01-12T05:43:53.947Z,1011.21
2019-01-12T05:44:58.441Z,1011.21
2019-01-12T05:46:03.949Z,1011.17
2019-01-12T05:47:09.456Z,1011.20
2019-01-12T05:48:14.973Z,1011.24
2019-01-12T05:49:20.474Z,1011.25
2019-01-12T05:50:26.989Z,1011.23
2019-01-12T05:51:31.491Z,1011.19
2019-01-12T05:52:37.000Z,1011.20
2019-01-12T05:53:42.502Z,1011.20
2019-01-12T05:54:48.011Z,1011.26
2019-01-12T05:55:58.112Z,1011.23
2019-01-12T05:57:00.041Z,1011.26
2019-01-12T05:58:04.538Z,1011.24
2019-01-12T05:59:10.040Z,1011.21
2019-01-12T06:00:15.554Z,1011.20
2019-01-12T06:01:21.065Z,1011.16
2019-01-12T06:02:26.566Z,1011.21
2019-01-12T06:03:33.085Z,1011.20
2019-01-12T06:04:37.579Z,1011.14
2019-01-12T06:05:43.092Z,1011.12
2019-01-12T06:06:48.598Z,1011.10
2019-01-12T06:07:54.112Z,1011.13
2019-01-12T06:08:59.612Z,1011.04
2019-01-12T06:10:06.129Z,1011.07
2019-01-12T06:11:10.631Z,1011.05
2019-01-12T06:12:16.135Z,1010.99
2019-01-12T06:13:21.640Z,1010.99
2019-01-12T06:14:27.148Z,1010.99
2019-01-12T06:15:32.656Z,1010.99
2019-01-12T06:16:39.177Z,1011.02
2019-01-12T06:17:43.697Z,1011.00
2019-01-12T06:18:49.185Z,1011.02
2019-01-12T06:19:54.691Z,1011.01
2019-01-12T06:21:00.196Z,1010.98
2019-01-12T06:22:05.714Z,1011.04
2019-01-12T06:23:12.233Z,1010.96
2019-01-12T06:24:16.723Z,1010.98
2019-01-12T06:25:22.229Z,1010.98
2019-01-12T06:26:27.734Z,1010.98
2019-01-12T06:27:33.242Z,1010.91
2019-01-12T06:28:38.752Z,1010.94
2019-01-12T06:29:45.269Z,1010.90
2019-01-12T06:30:49.767Z,1010.89
2019-01-12T06:31:55.276Z,1010.88
2019-01-12T06:33:00.784Z,1010.86
2019-01-12T06:34:06.297Z,1010.83
2019-01-12T06:35:11.798Z,1010.75
2019-01-12T06:36:18.315Z,1010.73
2019-01-12T06:37:22.824Z,1010.72
2019-01-12T06:38:28.323Z,1010.77
2019-01-12T06:39:33.832Z,1010.77
2019-01-12T06:40:39.335Z,1010.77
2019-01-12T06:41:44.850Z,1010.74
2019-01-12T06:42:51.363Z,1010.74
2019-01-12T06:43:55.858Z,1010.74
2019-01-12T06:45:01.367Z,1010.71
2019-01-12T06:46:06.878Z,1010.60
2019-01-12T06:47:12.383Z,1010.64
2019-01-12T06:48:17.897Z,1010.62
2019-01-12T06:49:24.412Z,1010.65
2019-01-12T06:50:28.911Z,1010.62
2019-01-12T06:51:34.418Z,1010.57
2019-01-12T06:52:39.927Z,1010.58
2019-01-12T06:53:45.428Z,1010.60
2019-01-12T06:54:50.938Z,1010.50
2019-01-12T06:55:57.455Z,1010.47
2019-01-12T06:57:01.957Z,1010.49
2019-01-12T06:58:07.463Z,1010.51
2019-01-12T06:59:12.971Z,1010.49
2019-01-12T07:00:18.482Z,1010.44
2019-01-12T07:01:23.991Z,1010.47
2019-01-12T07:02:30.503Z,1010.38
2019-01-12T07:03:35.001Z,1010.40
2019-01-12T07:04:40.511Z,1010.42
2019-01-12T07:05:46.015Z,1010.40
2019-01-12T07:06:51.522Z,1010.38
2019-01-12T07:07:57.034Z,1010.38
2019-01-12T07:09:03.552Z,1010.33
2019-01-12T07:10:08.043Z,1010.36
2019-01-12T07:11:13.552Z,1010.37
2019-01-12T07:12:19.067Z,1010.31
2019-01-12T07:13:24.570Z,1010.33
2019-01-12T07:14:30.081Z,1010.31
2019-01-12T07:15:36.594Z,1010.34
2019-01-12T07:16:41.104Z,1010.34
2019-01-12T07:17:46.605Z,1010.35
2019-01-12T07:18:52.109Z,1010.32
2019-01-12T07:19:57.618Z,1010.34
2019-01-12T07:21:03.123Z,1010.35
2019-01-12T07:22:09.644Z,1010.35
2019-01-12T07:23:14.151Z,1010.36
2019-01-12T07:24:19.643Z,1010.33
2019-01-12T07:25:25.155Z,1010.30
2019-01-12T07:26:30.659Z,1010.33
2019-01-12T07:27:36.170Z,1010.27
2019-01-12T07:28:42.687Z,1010.29
2019-01-12T07:29:47.186Z,1010.28
2019-01-12T07:30:52.692Z,1010.32
2019-01-12T07:31:58.206Z,1010.25
2019-01-12T07:33:03.707Z,1010.22
2019-01-12T07:34:09.212Z,1010.18
2019-01-12T07:35:15.734Z,1010.19
2019-01-12T07:36:20.232Z,1010.12
2019-01-12T07:37:25.774Z,1010.08
2019-01-12T07:38:31.248Z,1010.08
2019-01-12T07:39:36.752Z,1010.10
2019-01-12T07:40:42.264Z,1010.10
2019-01-12T07:41:48.778Z,1010.10
2019-01-12T07:42:53.272Z,1010.10
2019-01-12T07:43:58.801Z,1010.12
2019-01-12T07:45:04.292Z,1010.13
2019-01-12T07:46:09.795Z,1010.10
2019-01-12T07:47:15.306Z,1010.06
2019-01-12T07:48:21.834Z,1010.05
2019-01-12T07:49:27.116Z,1010.01
2019-01-12T07:50:31.834Z,1010.03
2019-01-12T07:51:37.341Z,1010.04
2019-01-12T07:52:42.847Z,1010.02
2019-01-12T07:53:48.347Z,1010.01
2019-01-12T07:54:54.880Z,1010.03
2019-01-12T07:55:59.366Z,1009.95
2019-01-12T07:57:04.873Z,1009.92
2019-01-12T07:58:10.396Z,1009.90
2019-01-12T07:59:15.889Z,1009.87
2019-01-12T08:00:21.412Z,1009.84
2019-01-12T08:01:27.916Z,1009.88
2019-01-12T08:02:32.419Z,1009.89
2019-01-12T08:03:37.920Z,1009.80
2019-01-12T08:04:43.426Z,1009.76
2019-01-12T08:05:48.940Z,1009.71
2019-01-12T08:06:54.445Z,1009.69
2019-01-12T08:08:00.962Z,1009.67
2019-01-12T08:09:05.456Z,1009.71
2019-01-12T08:10:10.964Z,1009.71
2019-01-12T08:11:16.470Z,1009.76
2019-01-12T08:12:21.978Z,1009.76
2019-01-12T08:13:27.484Z,1009.73
2019-01-12T08:14:34.004Z,1009.66
2019-01-12T08:15:38.502Z,1009.68
2019-01-12T08:16:44.008Z,1009.66
2019-01-12T08:17:49.520Z,1009.64
2019-01-12T08:18:55.024Z,1009.64
2019-01-12T08:20:00.533Z,1009.61
2019-01-12T08:21:07.053Z,1009.58
2019-01-12T08:22:11.557Z,1009.51
2019-01-12T08:23:17.049Z,1009.49
2019-01-12T08:24:22.573Z,1009.45
2019-01-12T08:25:28.070Z,1009.51
2019-01-12T08:26:33.577Z,1009.52
2019-01-12T08:27:40.093Z,1009.51
2019-01-12T08:28:44.595Z,1009.50
2019-01-12T08:29:50.102Z,1009.51
2019-01-12T08:30:55.605Z,1009.50
2019-01-12T08:32:01.115Z,1009.44
2019-01-12T08:33:06.623Z,1009.41
2019-01-12T08:34:13.138Z,1009.37
2019-01-12T08:35:17.636Z,1009.31
2019-01-12T08:36:23.143Z,1009.29
2019-01-12T08:37:28.657Z,1009.28
2019-01-12T08:38:34.159Z,1009.28
2019-01-12T08:39:39.677Z,1009.22
2019-01-12T08:40:46.184Z,1009.26
2019-01-12T08:41:50.681Z,1009.26
2019-01-12T08:42:56.188Z,1009.28
2019-01-12T08:44:01.699Z,1009.20
2019-01-12T08:45:07.208Z,1009.20
2019-01-12T08:46:12.713Z,1009.21
2019-01-12T08:47:19.233Z,1009.29
2019-01-12T08:48:23.728Z,1009.35
2019-01-12T08:49:29.234Z,1009.36
2019-01-12T08:50:34.743Z,1009.40
2019-01-12T08:51:40.251Z,1009.38
2019-01-12T08:52:45.759Z,1009.49
2019-01-12T08:53:52.274Z,1009.52
2019-01-12T08:54:56.770Z,1009.54
2019-01-12T08:56:02.273Z,1009.57
2019-01-12T08:57:07.788Z,1009.59
2019-01-12T08:58:13.293Z,1009.54
2019-01-12T08:59:18.801Z,1009.53
2019-01-12T09:00:25.307Z,1009.41
2019-01-12T09:01:29.812Z,1009.37
2019-01-12T09:02:35.327Z,1009.33
2019-01-12T09:03:40.836Z,1009.33
2019-01-12T09:04:46.338Z,1009.24
2019-01-12T09:05:51.845Z,1009.23
2019-01-12T09:06:58.359Z,1009.25
2019-01-12T09:08:02.857Z,1009.21
2019-01-12T09:09:08.370Z,1009.15
2019-01-12T09:10:13.880Z,1009.10
2019-01-12T09:11:19.381Z,1009.13
2019-01-12T09:12:24.893Z,1009.15
2019-01-12T09:13:31.403Z,1009.11
2019-01-12T09:14:35.902Z,1009.10
2019-01-12T09:15:41.413Z,1008.99
2019-01-12T09:16:46.914Z,1009.01
2019-01-12T09:17:52.428Z,1008.94
2019-01-12T09:18:57.933Z,1008.97
2019-01-12T09:20:04.449Z,1009.01
2019-01-12T09:21:08.946Z,1008.98
2019-01-12T09:22:14.458Z,1009.00
2019-01-12T09:23:19.962Z,1008.97
2019-01-12T09:24:25.466Z,1008.94
2019-01-12T09:25:30.981Z,1009.00
2019-01-12T09:26:37.496Z,1008.90
2019-01-12T09:27:41.996Z,1009.00
2019-01-12T09:28:47.502Z,1008.94
2019-01-12T09:29:53.007Z,1008.91
2019-01-12T09:30:58.510Z,1008.83
2019-01-12T09:32:04.025Z,1008.80
2019-01-12T09:33:10.539Z,1008.73
2019-01-12T09:34:15.037Z,1008.66
2019-01-12T09:35:20.546Z,1008.77
2019-01-12T09:36:26.059Z,1008.74
2019-01-12T09:37:31.562Z,1008.82
2019-01-12T09:38:37.064Z,1008.84
2019-01-12T09:39:43.584Z,1008.80
2019-01-12T09:40:48.079Z,1008.80
2019-01-12T09:41:53.586Z,1008.70
2019-01-12T09:42:59.106Z,1008.66
2019-01-12T09:44:04.602Z,1008.68
2019-01-12T09:45:10.118Z,1008.64
2019-01-12T09:46:16.627Z,1008.67
2019-01-12T09:47:21.140Z,1008.59
2019-01-12T09:48:26.642Z,1008.60
2019-01-12T09:49:32.136Z,1008.59
2019-01-12T09:50:37.647Z,1008.53
2019-01-12T09:51:43.160Z,1008.55
2019-01-12T09:52:49.686Z,1008.56
2019-01-12T09:53:54.174Z,1008.51
2019-01-12T09:54:59.677Z,1008.46
2019-01-12T09:56:05.183Z,1008.41
2019-01-12T09:57:10.700Z,1008.36
2019-01-12T09:58:16.207Z,1008.31
2019-01-12T09:59:22.718Z,1008.29
2019-01-12T10:00:27.215Z,1008.27
2019-01-12T10:01:32.720Z,1008.34
2019-01-12T10:02:38.231Z,1008.32
2019-01-12T10:03:43.744Z,1008.36
2019-01-12T10:04:49.252Z,1008.34
2019-01-12T10:05:55.763Z,1008.33
2019-01-12T10:07:00.257Z,1008.29
2019-01-12T10:08:05.766Z,1008.29
2019-01-12T10:09:11.272Z,1008.25
2019-01-12T10:10:16.783Z,1008.28
2019-01-12T10:11:22.286Z,1008.22
2019-01-12T10:12:28.811Z,1008.19
2019-01-12T10:13:33.311Z,1008.24
2019-01-12T10:14:38.810Z,1008.18
2019-01-12T10:15:44.315Z,1008.22
2019-01-12T10:16:49.830Z,1008.21
2019-01-12T10:17:55.337Z,1008.13
2019-01-12T10:19:01.856Z,1008.16
2019-01-12T10:20:06.353Z,1008.13
2019-01-12T10:21:11.865Z,1008.07
2019-01-12T10:22:17.975Z,1008.05
2019-01-12T10:23:22.879Z,1008.07
2019-01-12T10:24:28.379Z,1008.08
2019-01-12T10:25:34.900Z,1007.99
2019-01-12T10:26:39.406Z,1007.96
2019-01-12T10:27:44.902Z,1007.99
2019-01-12T10:28:50.407Z,1007.90
2019-01-12T10:29:55.916Z,1007.89
2019-01-12T10:31:01.426Z,1007.81
2019-01-12T10:32:07.948Z,1007.76
2019-01-12T10:33:12.437Z,1007.80
2019-01-12T10:34:17.950Z,1007.78
2019-01-12T10:35:23.460Z,1007.86
2019-01-12T10:36:28.968Z,1007.83
2019-01-12T10:37:34.481Z,1007.77
2019-01-12T10:38:40.986Z,1007.71
2019-01-12T10:39:45.487Z,1007.77
2019-01-12T10:40:50.993Z,1007.76
2019-01-12T10:41:56.500Z,1007.73
2019-01-12T10:43:02.015Z,1007.60
2019-01-12T10:44:07.523Z,1007.65
2019-01-12T10:45:14.039Z,1007.64
2019-01-12T10:46:18.525Z,1007.60
2019-01-12T10:47:24.047Z,1007.60
2019-01-12T10:48:29.538Z,1007.67
2019-01-12T10:49:35.053Z,1007.68
2019-01-12T10:50:40.558Z,1007.60
2019-01-12T10:51:47.079Z,1007.59
2019-01-12T10:52:51.580Z,1007.64
2019-01-12T10:53:57.078Z,1007.56
2019-01-12T10:55:02.589Z,1007.57
2019-01-12T10:56:08.101Z,1007.48
2019-01-12T10:57:13.602Z,1007.48
2019-01-12T10:58:20.136Z,1007.39
2019-01-12T10:59:24.627Z,1007.34
2019-01-12T11:00:30.127Z,1007.40
2019-01-12T11:01:35.634Z,1007.39
2019-01-12T11:02:41.139Z,1007.40
2019-01-12T11:03:46.652Z,1007.34
2019-01-12T11:04:53.175Z,1007.34
2019-01-12T11:05:57.672Z,1007.32
2019-01-12T11:07:03.176Z,1007.26
2019-01-12T11:08:08.685Z,1007.23
2019-01-12T11:09:14.187Z,1007.18
2019-01-12T11:10:19.697Z,1007.17
2019-01-12T11:11:26.214Z,1007.11
2019-01-12T11:12:30.714Z,1007.04
2019-01-12T11:13:36.223Z,1007.06
2019-01-12T11:14:41.727Z,1007.03
2019-01-12T11:15:47.236Z,1007.01
2019-01-12T11:16:52.738Z,1006.99
2019-01-12T11:17:59.268Z,1007.00
2019-01-12T11:19:03.757Z,1006.98
2019-01-12T11:20:09.321Z,1006.96
2019-01-12T11:21:14.772Z,1006.96
2019-01-12T11:22:20.282Z,1006.93
2019-01-12T11:23:25.785Z,1006.88
2019-01-12T11:24:32.317Z,1006.89
2019-01-12T11:25:42.835Z,1006.87
2019-01-12T11:26:42.316Z,1006.80
2019-01-12T11:27:47.825Z,1006.81
2019-01-12T11:28:53.326Z,1006.81
2019-01-12T11:29:58.832Z,1006.80
2019-01-12T11:31:05.353Z,1006.80
2019-01-12T11:32:09.846Z,1006.75
2019-01-12T11:33:15.351Z,1006.73
2019-01-12T11:34:20.861Z,1006.69
2019-01-12T11:35:26.369Z,1006.69
2019-01-12T11:36:31.873Z,1006.70
2019-01-12T11:37:38.405Z,1006.59
2019-01-12T11:38:42.897Z,1006.59
2019-01-12T11:39:48.401Z,1006.52
2019-01-12T11:40:53.904Z,1006.50
2019-01-12T11:41:59.415Z,1006.44
2019-01-12T11:43:04.928Z,1006.46
2019-01-12T11:44:11.435Z,1006.44
2019-01-12T11:45:15.934Z,1006.44
2019-01-12T11:46:21.450Z,1006.49
2019-01-12T11:47:26.955Z,1006.46
2019-01-12T11:48:32.475Z,1006.48
2019-01-12T11:49:37.971Z,1006.38
2019-01-12T11:50:44.483Z,1006.38
2019-01-12T11:51:48.983Z,1006.31
2019-01-12T11:52:54.487Z,1006.27
2019-01-12T11:53:59.997Z,1006.25
2019-01-12T11:55:05.508Z,1006.13
2019-01-12T11:56:11.009Z,1006.10
2019-01-12T11:57:19.208Z,1006.12
2019-01-12T11:58:22.030Z,1006.15
2019-01-12T11:59:27.531Z,1006.12
2019-01-12T12:00:33.044Z,1006.14
2019-01-12T12:01:38.547Z,1006.07
2019-01-12T12:02:44.054Z,1005.98
2019-01-12T12:03:50.574Z,1005.97
2019-01-12T12:04:55.074Z,1005.96
2019-01-12T12:06:00.575Z,1005.90
2019-01-12T12:07:06.088Z,1005.90
2019-01-12T12:08:11.591Z,1005.77
2019-01-12T12:09:17.106Z,1005.76
2019-01-12T12:10:23.614Z,1005.73
2019-01-12T12:11:28.125Z,1005.72
2019-01-12T12:12:33.626Z,1005.70
2019-01-12T12:13:39.127Z,1005.69
2019-01-12T12:14:44.644Z,1005.66
2019-01-12T12:15:50.146Z,1005.63
2019-01-12T12:16:56.677Z,1005.65
2019-01-12T12:18:01.170Z,1005.60
2019-01-12T12:19:06.668Z,1005.55
2019-01-12T12:20:12.183Z,1005.57
2019-01-12T12:21:17.682Z,1005.56
2019-01-12T12:22:23.187Z,1005.53
2019-01-12T12:23:29.704Z,1005.54
2019-01-12T12:24:34.197Z,1005.43
2019-01-12T12:25:39.711Z,1005.39
2019-01-12T12:26:45.221Z,1005.43
2019-01-12T12:27:50.723Z,1005.36
2019-01-12T12:28:56.231Z,1005.39
2019-01-12T12:30:02.746Z,1005.25
2019-01-12T12:31:07.251Z,1005.23
2019-01-12T12:32:12.750Z,1005.20
2019-01-12T12:33:18.262Z,1005.17
2019-01-12T12:34:23.768Z,1005.12
2019-01-12T12:35:29.282Z,1005.12
2019-01-12T12:36:35.795Z,1005.16
2019-01-12T12:37:40.297Z,1005.05
2019-01-12T12:38:45.796Z,1005.05
2019-01-12T12:39:51.304Z,1004.99
2019-01-12T12:40:56.817Z,1004.92
2019-01-12T12:42:02.326Z,1004.99
2019-01-12T12:43:08.833Z,1004.94
2019-01-12T12:44:13.347Z,1004.95
2019-01-12T12:45:18.903Z,1004.93
2019-01-12T12:46:24.353Z,1004.83
2019-01-12T12:47:29.867Z,1004.80
2019-01-12T12:48:35.389Z,1004.75
2019-01-12T12:49:41.886Z,1004.72
2019-01-12T12:50:46.384Z,1004.72
2019-01-12T12:51:51.894Z,1004.66
2019-01-12T12:52:57.400Z,1004.70
2019-01-12T12:54:02.909Z,1004.70
2019-01-12T12:55:08.435Z,1004.67
2019-01-12T12:56:14.924Z,1004.60
2019-01-12T12:57:19.441Z,1004.62
2019-01-12T12:58:24.959Z,1004.63
2019-01-12T12:59:30.470Z,1004.66
2019-01-12T13:00:35.946Z,1004.64
2019-01-12T13:01:41.459Z,1004.57
2019-01-12T13:02:47.971Z,1004.52
2019-01-12T13:03:52.465Z,1004.60
2019-01-12T13:04:57.978Z,1004.53
2019-01-12T13:06:03.501Z,1004.53
2019-01-12T13:07:09.031Z,1004.43
2019-01-12T13:08:14.504Z,1004.51
2019-01-12T13:09:22.622Z,1004.47
2019-01-12T13:10:25.510Z,1004.35
2019-01-12T13:11:31.050Z,1004.39
2019-01-12T13:12:36.526Z,1004.36